Time;durP1;ratioP1;P1;durP2;ratioP2;P2;SDS_P1;SDS_P2;PMS_P1;PMS_P2;Temp;Humidity;BMP_temperature;BMP_pressure;BME280_temperature;BME280_humidity;BME280_pressure;Samples;Min_cycle;Max_cycle;Signal;HPM_P1;HPM_P2
2022/07/09 00:01:58;;;;;;;;;;;16.90;99.90;;;;;;5019764;28;19994;-82
2022/07/09 00:04:24;;;;;;;;;;;16.90;99.90;;;;;;5019743;28;20450;-82
2022/07/09 00:06:50;;;;;;;;;;;16.80;99.90;;;;;;5016223;28;20030;-83
2022/07/09 00:09:15;;;;;;;;;;;16.80;99.90;;;;;;5003401;28;19929;-83
2022/07/09 00:11:41;;;;;;;;;;;16.90;99.90;;;;;;5018755;28;19937;-83
2022/07/09 00:14:16;;;;;;;;;;;16.90;99.90;;;;;;5020537;28;19936;-83
2022/07/09 00:16:42;;;;;;;;;;;17.00;99.90;;;;;;5016517;28;19933;-83
2022/07/09 00:19:08;;;;;;;;;;;17.00;99.90;;;;;;5015134;28;19971;-82
2022/07/09 00:21:33;;;;;;;;;;;17.10;99.90;;;;;;5017489;28;20818;-83
2022/07/09 00:23:59;;;;;;;;;;;17.00;99.90;;;;;;5019657;28;19929;-83
2022/07/09 00:26:25;;;;;;;;;;;17.00;99.90;;;;;;5019091;28;19928;-83
2022/07/09 00:28:50;;;;;;;;;;;16.90;99.90;;;;;;5018340;28;20653;-83
2022/07/09 00:31:16;;;;;;;;;;;16.90;99.90;;;;;;5020743;28;19929;-83
2022/07/09 00:33:42;;;;;;;;;;;16.90;99.90;;;;;;5020181;28;20027;-83
2022/07/09 00:36:07;;;;;;;;;;;16.90;99.90;;;;;;5021734;28;19928;-82
2022/07/09 00:38:33;;;;;;;;;;;16.80;99.90;;;;;;5000887;28;19933;-82
2022/07/09 00:40:59;;;;;;;;;;;16.80;99.90;;;;;;5000597;28;19928;-83
2022/07/09 00:43:25;;;;;;;;;;;16.80;99.90;;;;;;5012777;28;19929;-83
2022/07/09 00:45:50;;;;;;;;;;;16.80;99.90;;;;;;5021630;28;20031;-83
2022/07/09 00:48:16;;;;;;;;;;;16.80;99.90;;;;;;5003843;28;19935;-83
2022/07/09 00:50:43;;;;;;;;;;;16.90;99.90;;;;;;5022874;28;19932;-82
2022/07/09 00:53:16;;;;;;;;;;;16.90;99.90;;;;;;5023736;28;20298;-83
2022/07/09 00:55:44;;;;;;;;;;;16.90;99.90;;;;;;5023337;28;19940;-83
2022/07/09 00:58:11;;;;;;;;;;;17.00;99.90;;;;;;5002392;28;20015;-83
2022/07/09 01:00:38;;;;;;;;;;;16.90;99.90;;;;;;5018313;28;20432;-83
2022/07/09 01:03:03;;;;;;;;;;;16.90;99.90;;;;;;5016306;28;20419;-83
2022/07/09 01:05:35;;;;;;;;;;;17.10;99.90;;;;;;5022681;28;19933;-82
2022/07/09 01:08:04;;;;;;;;;;;17.10;99.90;;;;;;5014737;28;19929;-83
2022/07/09 01:10:30;;;;;;;;;;;17.10;99.90;;;;;;5019103;28;19936;-82
2022/07/09 01:12:56;;;;;;;;;;;17.10;99.90;;;;;;5020618;28;19956;-83
2022/07/09 01:15:22;;;;;;;;;;;17.20;99.90;;;;;;5019259;28;20362;-83
2022/07/09 01:17:48;;;;;;;;;;;17.20;99.90;;;;;;5022315;28;19935;-83
2022/07/09 01:20:13;;;;;;;;;;;17.20;99.90;;;;;;5013090;28;19932;-83
2022/07/09 01:22:41;;;;;;;;;;;17.10;99.90;;;;;;5018614;28;20388;-83
2022/07/09 01:25:09;;;;;;;;;;;17.10;99.90;;;;;;4995361;28;20472;-83
2022/07/09 01:27:38;;;;;;;;;;;17.20;99.90;;;;;;5019375;28;19929;-83
2022/07/09 01:30:04;;;;;;;;;;;17.10;99.90;;;;;;5016537;28;19929;-83
2022/07/09 01:32:30;;;;;;;;;;;17.20;99.90;;;;;;5019894;28;19929;-83
2022/07/09 01:34:56;;;;;;;;;;;17.20;99.90;;;;;;5017288;28;19955;-83
2022/07/09 01:37:22;;;;;;;;;;;17.20;99.90;;;;;;5018929;28;20668;-82
2022/07/09 01:39:51;;;;;;;;;;;17.20;99.90;;;;;;5016890;28;22915;-83
2022/07/09 01:42:17;;;;;;;;;;;17.10;99.90;;;;;;5017120;28;19929;-83
2022/07/09 01:44:43;;;;;;;;;;;17.10;99.90;;;;;;5017660;28;19928;-82
2022/07/09 01:47:08;;;;;;;;;;;17.10;99.90;;;;;;4997195;28;19936;-82
2022/07/09 01:49:34;;;;;;;;;;;17.10;99.90;;;;;;5016409;28;19936;-82
2022/07/09 01:52:00;;;;;;;;;;;17.10;99.90;;;;;;4992316;28;20386;-82
2022/07/09 01:54:25;;;;;;;;;;;17.20;99.90;;;;;;5020825;28;20264;-83
2022/07/09 01:56:51;;;;;;;;;;;17.10;99.90;;;;;;5020366;28;19936;-83
2022/07/09 01:59:17;;;;;;;;;;;17.20;99.90;;;;;;5018885;28;19966;-82
2022/07/09 02:01:42;;;;;;;;;;;17.10;99.90;;;;;;5020457;28;19933;-83
2022/07/09 02:04:08;;;;;;;;;;;17.20;99.90;;;;;;5017335;28;21057;-82
2022/07/09 02:06:34;;;;;;;;;;;17.10;99.90;;;;;;5016378;28;20015;-82
2022/07/09 02:09:00;;;;;;;;;;;17.20;99.90;;;;;;5018953;28;19952;-82
2022/07/09 02:11:25;;;;;;;;;;;17.20;99.90;;;;;;5017689;28;19968;-82
2022/07/09 02:13:51;;;;;;;;;;;17.20;99.90;;;;;;5022415;28;19932;-83
2022/07/09 02:16:17;;;;;;;;;;;17.20;99.90;;;;;;5019081;28;19994;-83
2022/07/09 02:18:43;;;;;;;;;;;17.20;99.90;;;;;;4993974;28;19929;-82
2022/07/09 02:21:08;;;;;;;;;;;17.10;99.90;;;;;;5019186;28;19963;-83
2022/07/09 02:23:34;;;;;;;;;;;17.10;99.90;;;;;;5020800;28;19929;-82
2022/07/09 02:26:00;;;;;;;;;;;17.10;99.90;;;;;;5016120;28;20361;-82
2022/07/09 02:28:26;;;;;;;;;;;17.10;99.90;;;;;;5020148;28;19952;-83
2022/07/09 02:30:51;;;;;;;;;;;17.10;99.90;;;;;;5012793;28;19956;-83
2022/07/09 02:33:17;;;;;;;;;;;17.10;99.90;;;;;;5011768;28;20318;-83
2022/07/09 02:35:43;;;;;;;;;;;17.10;99.90;;;;;;5033361;28;19928;-83
2022/07/09 02:38:08;;;;;;;;;;;17.10;99.90;;;;;;5031265;28;20018;-83
2022/07/09 02:40:34;;;;;;;;;;;17.00;99.90;;;;;;5011985;28;20446;-83
2022/07/09 02:43:00;;;;;;;;;;;17.10;99.90;;;;;;5018630;28;19929;-82
2022/07/09 02:45:26;;;;;;;;;;;17.00;99.90;;;;;;5019891;28;20428;-83
2022/07/09 02:47:51;;;;;;;;;;;17.00;99.90;;;;;;5018427;28;19929;-83
2022/07/09 02:50:17;;;;;;;;;;;17.00;99.90;;;;;;5017092;28;19991;-83
2022/07/09 02:52:43;;;;;;;;;;;17.00;99.90;;;;;;5016966;28;19937;-83
2022/07/09 02:55:08;;;;;;;;;;;16.90;99.90;;;;;;5013194;28;19987;-82
2022/07/09 02:57:34;;;;;;;;;;;17.00;99.90;;;;;;5013825;28;20349;-82
2022/07/09 03:00:00;;;;;;;;;;;16.90;99.90;;;;;;5007105;28;20279;-83
2022/07/09 03:02:25;;;;;;;;;;;16.90;99.90;;;;;;4989479;28;19929;-83
2022/07/09 03:04:51;;;;;;;;;;;17.00;99.90;;;;;;5007235;28;20342;-83
2022/07/09 03:07:17;;;;;;;;;;;16.90;99.90;;;;;;5010774;28;19929;-83
2022/07/09 03:09:43;;;;;;;;;;;17.00;99.90;;;;;;4989820;28;20350;-83
2022/07/09 03:12:08;;;;;;;;;;;16.90;99.90;;;;;;5006691;28;19940;-82
2022/07/09 03:14:34;;;;;;;;;;;16.90;99.90;;;;;;5007968;28;19929;-83
2022/07/09 03:17:00;;;;;;;;;;;16.90;99.90;;;;;;5009914;28;20018;-83
2022/07/09 03:19:26;;;;;;;;;;;16.90;99.90;;;;;;4988589;28;19976;-83
2022/07/09 03:21:51;;;;;;;;;;;16.90;99.90;;;;;;5011036;28;19972;-83
2022/07/09 03:24:17;;;;;;;;;;;16.90;99.90;;;;;;5008641;28;19972;-83
2022/07/09 03:26:43;;;;;;;;;;;16.90;99.90;;;;;;5023282;28;19975;-83
2022/07/09 03:29:08;;;;;;;;;;;16.90;99.90;;;;;;5007810;28;19929;-83
2022/07/09 03:31:34;;;;;;;;;;;16.90;99.90;;;;;;5010191;28;19969;-83
2022/07/09 03:34:00;;;;;;;;;;;16.80;99.90;;;;;;5009037;28;19936;-82
2022/07/09 03:36:25;;;;;;;;;;;16.80;99.90;;;;;;5005672;28;19935;-84
2022/07/09 03:38:51;;;;;;;;;;;16.80;99.90;;;;;;5008101;28;19929;-83
2022/07/09 03:41:17;;;;;;;;;;;16.80;99.90;;;;;;5006752;28;20817;-83
2022/07/09 03:43:42;;;;;;;;;;;16.90;99.90;;;;;;5008341;28;20731;-83
2022/07/09 03:46:08;;;;;;;;;;;16.90;99.90;;;;;;5008694;28;19964;-83
2022/07/09 03:48:34;;;;;;;;;;;16.90;99.90;;;;;;5004514;28;19933;-83
2022/07/09 03:51:00;;;;;;;;;;;16.90;99.90;;;;;;5011395;28;19929;-83
2022/07/09 03:53:25;;;;;;;;;;;16.90;99.90;;;;;;5006970;28;19955;-82
2022/07/09 03:55:51;;;;;;;;;;;17.00;99.90;;;;;;4992464;28;19929;-83
2022/07/09 03:58:17;;;;;;;;;;;17.00;99.90;;;;;;5007584;28;20803;-83
2022/07/09 04:00:42;;;;;;;;;;;17.00;99.90;;;;;;4987241;28;19944;-83
2022/07/09 04:03:08;;;;;;;;;;;17.00;99.90;;;;;;5024577;28;19999;-82
2022/07/09 04:05:34;;;;;;;;;;;16.90;99.90;;;;;;5010469;28;19929;-82
2022/07/09 04:07:59;;;;;;;;;;;17.00;99.90;;;;;;4989535;28;20405;-83
2022/07/09 04:10:25;;;;;;;;;;;17.00;99.90;;;;;;5010231;28;19936;-82
2022/07/09 04:12:51;;;;;;;;;;;17.00;99.90;;;;;;5008746;28;19987;-82
2022/07/09 04:15:16;;;;;;;;;;;16.90;99.90;;;;;;5011129;28;19944;-83
2022/07/09 04:17:42;;;;;;;;;;;16.90;99.90;;;;;;5011263;28;20301;-83
2022/07/09 04:20:08;;;;;;;;;;;16.80;99.90;;;;;;4994594;28;20455;-84
2022/07/09 04:22:34;;;;;;;;;;;16.80;99.90;;;;;;4995939;28;19928;-84
2022/07/09 04:25:00;;;;;;;;;;;16.70;99.90;;;;;;5010737;28;19936;-83
2022/07/09 04:27:33;;;;;;;;;;;16.80;99.90;;;;;;5014036;28;19964;-83
2022/07/09 04:29:59;;;;;;;;;;;16.70;99.90;;;;;;5016025;28;19971;-82
2022/07/09 04:32:25;;;;;;;;;;;16.80;99.90;;;;;;5008832;28;20060;-82
2022/07/09 04:34:50;;;;;;;;;;;16.80;99.90;;;;;;4992589;28;20126;-82
2022/07/09 04:37:16;;;;;;;;;;;16.80;99.90;;;;;;5009800;28;20417;-82
2022/07/09 04:39:42;;;;;;;;;;;16.80;99.90;;;;;;5009873;28;20429;-83
2022/07/09 04:42:10;;;;;;;;;;;16.90;99.90;;;;;;5012017;28;19929;-82
2022/07/09 04:44:36;;;;;;;;;;;16.90;99.90;;;;;;5011211;28;20390;-82
2022/07/09 04:47:01;;;;;;;;;;;17.00;99.90;;;;;;4993077;28;20091;-81
2022/07/09 04:49:27;;;;;;;;;;;17.00;99.90;;;;;;4995712;28;19940;-82
2022/07/09 04:51:53;;;;;;;;;;;17.10;99.90;;;;;;5011874;28;20178;-83
2022/07/09 04:54:18;;;;;;;;;;;17.30;99.90;;;;;;5012772;28;19967;-82
2022/07/09 04:56:44;;;;;;;;;;;17.30;99.90;;;;;;5007233;28;20398;-83
2022/07/09 04:59:10;;;;;;;;;;;17.30;99.90;;;;;;5009403;28;19929;-83
2022/07/09 05:01:35;;;;;;;;;;;17.40;99.90;;;;;;5012350;28;19933;-82
2022/07/09 05:04:01;;;;;;;;;;;17.40;99.90;;;;;;5008342;28;19929;-83
2022/07/09 05:06:27;;;;;;;;;;;17.40;99.90;;;;;;5007027;28;19972;-83
2022/07/09 05:08:53;;;;;;;;;;;17.50;99.90;;;;;;5006457;28;19925;-83
2022/07/09 05:11:18;;;;;;;;;;;17.40;99.90;;;;;;4989391;28;20468;-82
2022/07/09 05:13:46;;;;;;;;;;;17.50;99.90;;;;;;5009328;28;19940;-82
2022/07/09 05:16:11;;;;;;;;;;;17.50;99.90;;;;;;5008896;28;19979;-84
2022/07/09 05:18:37;;;;;;;;;;;17.60;99.90;;;;;;5009508;28;19936;-83
2022/07/09 05:21:03;;;;;;;;;;;17.80;99.90;;;;;;5013874;28;20461;-83
2022/07/09 05:23:28;;;;;;;;;;;17.80;99.90;;;;;;5011015;28;19944;-83
2022/07/09 05:25:54;;;;;;;;;;;17.90;99.90;;;;;;5009712;28;20028;-83
2022/07/09 05:28:20;;;;;;;;;;;18.00;99.90;;;;;;5006361;28;19925;-84
2022/07/09 05:30:45;;;;;;;;;;;18.00;99.90;;;;;;5010926;28;19943;-82
2022/07/09 05:33:11;;;;;;;;;;;19.00;99.90;;;;;;5014481;28;19980;-84
2022/07/09 05:35:37;;;;;;;;;;;19.00;99.90;;;;;;5007650;28;20437;-82
2022/07/09 05:38:02;;;;;;;;;;;18.90;99.90;;;;;;5011461;28;20493;-83
2022/07/09 05:40:28;;;;;;;;;;;18.60;99.90;;;;;;5018938;28;20598;-83
2022/07/09 05:42:54;;;;;;;;;;;18.50;99.90;;;;;;4993213;28;19987;-82
2022/07/09 05:45:20;;;;;;;;;;;18.40;99.90;;;;;;5018311;28;19972;-81
2022/07/09 05:47:45;;;;;;;;;;;18.20;99.90;;;;;;5018331;28;19987;-83
2022/07/09 05:50:11;;;;;;;;;;;18.30;99.90;;;;;;5018906;28;19929;-83
2022/07/09 05:52:37;;;;;;;;;;;18.30;99.90;;;;;;5024981;28;19929;-84
2022/07/09 05:55:03;;;;;;;;;;;18.30;99.90;;;;;;5015042;28;19982;-84
2022/07/09 05:57:29;;;;;;;;;;;18.30;99.90;;;;;;5017127;28;20020;-85
2022/07/09 05:59:55;;;;;;;;;;;18.50;99.90;;;;;;4990728;28;19933;-83
2022/07/09 06:02:21;;;;;;;;;;;18.70;99.90;;;;;;5021173;28;19928;-82
2022/07/09 06:04:47;;;;;;;;;;;18.60;99.90;;;;;;5020985;28;20429;-84
2022/07/09 06:07:13;;;;;;;;;;;18.70;99.90;;;;;;5019664;28;19929;-83
2022/07/09 06:09:38;;;;;;;;;;;18.90;99.90;;;;;;5019348;28;19928;-83
2022/07/09 06:12:04;;;;;;;;;;;19.00;99.90;;;;;;5018215;28;20108;-82
2022/07/09 06:14:30;;;;;;;;;;;18.90;99.90;;;;;;5023200;28;19936;-83
2022/07/09 06:16:56;;;;;;;;;;;18.90;99.90;;;;;;5019115;28;19929;-85
2022/07/09 06:19:22;;;;;;;;;;;19.00;99.90;;;;;;5020698;28;21714;-83
2022/07/09 06:21:47;;;;;;;;;;;19.00;99.90;;;;;;5017332;28;19928;-82
2022/07/09 06:24:13;;;;;;;;;;;19.10;99.90;;;;;;5013916;28;20553;-81
2022/07/09 06:26:39;;;;;;;;;;;19.20;99.90;;;;;;5020144;28;20389;-81
2022/07/09 06:29:05;;;;;;;;;;;19.30;99.90;;;;;;5019898;28;20063;-83
2022/07/09 06:31:31;;;;;;;;;;;19.40;99.90;;;;;;5016287;28;19929;-83
2022/07/09 06:33:58;;;;;;;;;;;19.30;99.90;;;;;;5000705;28;20382;-83
2022/07/09 06:36:23;;;;;;;;;;;19.50;99.90;;;;;;5020622;28;19929;-83
2022/07/09 06:41:33;;;;;;;;;;;19.70;99.90;;;;;;5009177;28;19928;-82
2022/07/09 06:43:59;;;;;;;;;;;19.80;99.90;;;;;;5018675;28;20098;-84
2022/07/09 06:46:26;;;;;;;;;;;19.70;99.90;;;;;;5018244;28;20413;-86
2022/07/09 06:48:51;;;;;;;;;;;19.60;99.90;;;;;;5017772;28;19929;-83
2022/07/09 06:51:17;;;;;;;;;;;19.60;99.90;;;;;;5015961;28;19935;-82
2022/07/09 06:53:43;;;;;;;;;;;19.70;99.90;;;;;;5015568;28;19929;-83
2022/07/09 06:56:08;;;;;;;;;;;19.70;99.90;;;;;;5020278;28;19975;-83
2022/07/09 06:58:34;;;;;;;;;;;19.50;99.90;;;;;;5020128;28;19966;-83
2022/07/09 07:01:00;;;;;;;;;;;19.50;99.90;;;;;;5016731;28;19992;-83
2022/07/09 07:03:26;;;;;;;;;;;19.50;99.90;;;;;;5018933;28;19933;-82
2022/07/09 07:05:51;;;;;;;;;;;19.40;99.90;;;;;;5017432;28;20406;-84
2022/07/09 07:08:18;;;;;;;;;;;19.40;99.90;;;;;;4999036;28;20063;-82
2022/07/09 07:10:44;;;;;;;;;;;19.40;99.90;;;;;;5002493;28;20377;-84
2022/07/09 07:13:10;;;;;;;;;;;19.40;99.90;;;;;;5016759;28;19928;-84
2022/07/09 07:15:36;;;;;;;;;;;19.50;99.90;;;;;;4993061;28;19929;-84
2022/07/09 07:18:02;;;;;;;;;;;19.50;99.90;;;;;;5015648;28;19940;-83
2022/07/09 07:20:28;;;;;;;;;;;19.50;99.90;;;;;;4999693;28;20003;-84
2022/07/09 07:22:53;;;;;;;;;;;19.60;99.90;;;;;;5013520;28;19933;-84
2022/07/09 07:25:19;;;;;;;;;;;19.60;99.90;;;;;;5012809;28;19935;-83
2022/07/09 07:27:45;;;;;;;;;;;19.60;99.90;;;;;;5006362;28;19937;-84
2022/07/09 07:30:11;;;;;;;;;;;19.70;99.90;;;;;;4999573;28;20472;-83
2022/07/09 07:32:37;;;;;;;;;;;19.90;99.90;;;;;;5002418;28;19940;-84
2022/07/09 07:35:02;;;;;;;;;;;20.10;99.90;;;;;;4996076;28;19943;-83
2022/07/09 07:37:28;;;;;;;;;;;20.20;99.90;;;;;;4994710;28;20314;-84
2022/07/09 07:39:54;;;;;;;;;;;20.20;99.90;;;;;;4981272;28;20134;-83
2022/07/09 07:42:20;;;;;;;;;;;20.40;99.90;;;;;;4998336;28;19933;-83
2022/07/09 07:44:46;;;;;;;;;;;20.50;99.90;;;;;;5000373;28;19925;-83
2022/07/09 07:47:12;;;;;;;;;;;20.40;99.90;;;;;;5000478;28;20869;-84
2022/07/09 07:49:37;;;;;;;;;;;20.20;99.90;;;;;;4991403;28;20290;-82
2022/07/09 07:52:03;;;;;;;;;;;20.20;99.90;;;;;;5002781;28;20002;-84
2022/07/09 07:54:29;;;;;;;;;;;20.10;99.90;;;;;;4989855;28;19963;-85
2022/07/09 07:56:54;;;;;;;;;;;20.00;99.90;;;;;;5008520;28;20850;-83
2022/07/09 07:59:20;;;;;;;;;;;20.00;99.90;;;;;;5004714;28;20888;-83
2022/07/09 08:01:45;;;;;;;;;;;20.00;99.90;;;;;;4994384;28;20303;-85
2022/07/09 08:04:11;;;;;;;;;;;19.90;99.90;;;;;;4999131;28;19936;-82
2022/07/09 08:06:37;;;;;;;;;;;19.90;99.90;;;;;;4996951;28;19939;-84
2022/07/09 08:09:03;;;;;;;;;;;19.80;99.90;;;;;;4990029;28;19929;-84
2022/07/09 08:11:29;;;;;;;;;;;19.80;99.90;;;;;;4994756;28;19938;-82
2022/07/09 08:13:54;;;;;;;;;;;19.80;99.90;;;;;;4990346;28;19936;-84
2022/07/09 08:16:20;;;;;;;;;;;19.90;99.90;;;;;;4961106;28;19960;-83
2022/07/09 08:18:46;;;;;;;;;;;19.90;99.90;;;;;;4975299;28;19928;-84
2022/07/09 08:21:12;;;;;;;;;;;19.90;99.90;;;;;;4992472;28;19928;-82
2022/07/09 08:23:56;;;;;;;;;;;19.90;99.90;;;;;;4996201;28;19936;-84
2022/07/09 08:26:26;;;;;;;;;;;19.90;99.90;;;;;;4990971;28;20338;-84
2022/07/09 08:28:52;;;;;;;;;;;19.90;99.90;;;;;;4991694;28;19925;-84
2022/07/09 08:31:18;;;;;;;;;;;19.90;99.90;;;;;;4979964;28;20719;-84
2022/07/09 08:33:44;;;;;;;;;;;20.10;99.90;;;;;;4991187;28;20024;-85
2022/07/09 08:36:13;;;;;;;;;;;20.40;99.90;;;;;;4993341;28;21567;-83
2022/07/09 08:38:38;;;;;;;;;;;20.40;99.90;;;;;;4996552;28;19929;-84
2022/07/09 08:41:05;;;;;;;;;;;20.50;99.90;;;;;;4995729;28;19984;-83
2022/07/09 08:43:36;;;;;;;;;;;20.20;99.90;;;;;;4990906;28;20764;-84
2022/07/09 08:46:02;;;;;;;;;;;20.40;99.90;;;;;;5001721;28;20468;-83
2022/07/09 08:48:42;;;;;;;;;;;20.60;99.90;;;;;;4997644;28;19964;-84
2022/07/09 08:51:08;;;;;;;;;;;20.70;99.90;;;;;;4996555;28;19940;-83
2022/07/09 08:53:38;;;;;;;;;;;21.70;99.90;;;;;;4997660;28;19929;-83
2022/07/09 08:56:04;;;;;;;;;;;22.30;99.90;;;;;;4997611;28;20428;-84
2022/07/09 08:58:31;;;;;;;;;;;22.80;99.90;;;;;;5001361;28;19929;-82
2022/07/09 09:00:58;;;;;;;;;;;23.30;99.90;;;;;;4997871;28;19991;-83
2022/07/09 09:03:24;;;;;;;;;;;23.10;99.90;;;;;;4989377;28;19937;-83
2022/07/09 09:06:00;;;;;;;;;;;22.70;99.90;;;;;;4989416;28;19933;-84
2022/07/09 09:08:26;;;;;;;;;;;22.40;99.90;;;;;;4990639;28;19936;-83
2022/07/09 09:10:52;;;;;;;;;;;22.30;99.90;;;;;;4997975;28;20325;-81
2022/07/09 09:13:18;;;;;;;;;;;22.80;99.90;;;;;;4990933;28;20662;-82
2022/07/09 09:15:45;;;;;;;;;;;22.40;99.90;;;;;;4992209;28;19928;-83
2022/07/09 09:18:11;;;;;;;;;;;22.40;99.90;;;;;;5002162;28;20023;-86
2022/07/09 09:20:37;;;;;;;;;;;22.40;99.90;;;;;;5012773;28;19929;-84
2022/07/09 09:23:04;;;;;;;;;;;22.50;99.90;;;;;;5013963;28;19940;-85
2022/07/09 09:25:30;;;;;;;;;;;23.20;99.90;;;;;;5008206;28;19968;-84
2022/07/09 09:27:59;;;;;;;;;;;23.10;99.90;;;;;;4991169;28;19932;-85
2022/07/09 09:30:25;;;;;;;;;;;22.90;99.90;;;;;;5008781;28;20024;-83
2022/07/09 09:32:59;;;;;;;;;;;23.00;99.90;;;;;;5014055;28;19953;-82
2022/07/09 09:35:26;;;;;;;;;;;23.20;99.90;;;;;;4993174;28;19933;-84
2022/07/09 09:37:52;;;;;;;;;;;23.30;99.90;;;;;;5008249;28;20514;-84
2022/07/09 09:40:17;;;;;;;;;;;23.30;99.90;;;;;;4992581;28;20805;-88
2022/07/09 09:42:45;;;;;;;;;;;23.80;99.90;;;;;;5009131;28;19933;-83
2022/07/09 09:45:12;;;;;;;;;;;23.60;99.90;;;;;;5007421;28;20058;-81
2022/07/09 09:47:38;;;;;;;;;;;23.60;99.90;;;;;;5001854;28;19929;-85
2022/07/09 09:50:04;;;;;;;;;;;23.90;99.90;;;;;;5007006;28;19960;-85
2022/07/09 09:52:30;;;;;;;;;;;24.30;99.90;;;;;;5015144;28;19928;-86
2022/07/09 09:54:56;;;;;;;;;;;24.40;99.90;;;;;;5013300;28;20059;-86
2022/07/09 09:57:24;;;;;;;;;;;24.60;99.90;;;;;;5011202;28;20027;-85
2022/07/09 09:59:51;;;;;;;;;;;24.70;99.90;;;;;;4994664;28;19934;-86
2022/07/09 10:02:19;;;;;;;;;;;24.70;99.90;;;;;;4984432;28;20016;-83
2022/07/09 10:04:44;;;;;;;;;;;24.70;99.90;;;;;;5003020;28;20007;-85
2022/07/09 10:07:12;;;;;;;;;;;24.60;99.90;;;;;;5000366;28;20769;-83
2022/07/09 10:09:38;;;;;;;;;;;24.10;99.90;;;;;;4998869;28;19929;-84
2022/07/09 10:12:03;;;;;;;;;;;23.90;99.90;;;;;;4997545;28;20294;-87
2022/07/09 10:14:30;;;;;;;;;;;23.90;99.90;;;;;;4983033;28;19962;-88
2022/07/09 10:16:56;;;;;;;;;;;23.70;99.90;;;;;;5001579;28;19936;-85
2022/07/09 10:19:26;;;;;;;;;;;23.70;99.90;;;;;;5001529;28;19929;-88
2022/07/09 10:21:55;;;;;;;;;;;23.70;99.90;;;;;;4980987;28;19987;-86
2022/07/09 10:24:25;;;;;;;;;;;24.20;99.90;;;;;;4994849;28;19968;-86
2022/07/09 10:26:51;;;;;;;;;;;24.00;99.90;;;;;;5002533;28;19972;-84
2022/07/09 10:29:26;;;;;;;;;;;23.70;99.90;;;;;;5012838;28;20381;-88
2022/07/09 10:31:56;;;;;;;;;;;23.30;99.90;;;;;;4998295;28;19932;-86
2022/07/09 10:34:31;;;;;;;;;;;23.50;99.90;;;;;;4998491;28;20043;-84
2022/07/09 10:37:01;;;;;;;;;;;23.20;99.90;;;;;;5001834;28;20011;-88
2022/07/09 10:39:29;;;;;;;;;;;23.50;99.90;;;;;;5003155;28;19935;-85
2022/07/09 10:42:01;;;;;;;;;;;23.50;99.90;;;;;;4998125;28;19929;-84
2022/07/09 10:44:28;;;;;;;;;;;24.00;99.90;;;;;;5006148;28;20317;-85
2022/07/09 10:46:57;;;;;;;;;;;23.90;99.90;;;;;;5001129;28;19933;-85
2022/07/09 10:49:25;;;;;;;;;;;24.30;99.90;;;;;;4980211;28;19929;-87
2022/07/09 10:51:54;;;;;;;;;;;24.30;99.90;;;;;;4998302;28;20358;-85
2022/07/09 10:54:20;;;;;;;;;;;24.90;99.90;;;;;;5003365;28;19940;-86
2022/07/09 10:56:46;;;;;;;;;;;24.60;99.90;;;;;;5004087;28;20804;-86
2022/07/09 10:59:15;;;;;;;;;;;24.50;99.90;;;;;;5000438;28;19983;-87
2022/07/09 11:01:41;;;;;;;;;;;24.20;99.90;;;;;;4998250;28;19929;-84
2022/07/09 11:04:07;;;;;;;;;;;24.00;99.90;;;;;;5002869;28;19940;-85
2022/07/09 11:06:43;;;;;;;;;;;24.10;99.90;;;;;;5001105;28;20825;-84
2022/07/09 11:09:12;;;;;;;;;;;24.00;99.90;;;;;;4992164;28;19940;-86
2022/07/09 11:11:43;;;;;;;;;;;23.80;99.90;;;;;;5000415;28;20016;-85
2022/07/09 11:14:09;;;;;;;;;;;23.40;99.90;;;;;;4979368;28;19940;-86
2022/07/09 11:16:35;;;;;;;;;;;22.90;99.90;;;;;;5000275;28;20456;-85
2022/07/09 11:19:18;;;;;;;;;;;23.50;99.90;;;;;;5000471;28;20003;-86
2022/07/09 11:21:44;;;;;;;;;;;23.90;99.90;;;;;;4998565;28;19964;-86
2022/07/09 11:24:14;;;;;;;;;;;24.00;99.90;;;;;;5001755;28;19939;-83
2022/07/09 11:26:39;;;;;;;;;;;23.70;99.90;;;;;;4994752;28;19929;-85
2022/07/09 11:29:09;;;;;;;;;;;23.20;99.90;;;;;;4996432;28;20412;-84
2022/07/09 11:31:36;;;;;;;;;;;22.70;99.90;;;;;;4982171;28;20673;-84
2022/07/09 11:34:10;;;;;;;;;;;22.30;99.90;;;;;;5000010;28;19929;-86
2022/07/09 11:36:40;;;;;;;;;;;22.50;99.90;;;;;;5000937;28;20012;-85
2022/07/09 11:39:06;;;;;;;;;;;22.10;99.90;;;;;;5001559;28;20487;-86
2022/07/09 11:41:39;;;;;;;;;;;22.50;99.90;;;;;;5002460;28;19987;-85
2022/07/09 11:44:05;;;;;;;;;;;22.40;99.90;;;;;;5002860;28;20030;-85
2022/07/09 11:46:31;;;;;;;;;;;23.40;99.90;;;;;;5000266;28;20416;-86
2022/07/09 11:48:57;;;;;;;;;;;23.80;99.90;;;;;;4978953;28;19929;-83
2022/07/09 11:51:26;;;;;;;;;;;24.40;99.90;;;;;;5009174;28;20841;-85
2022/07/09 11:53:52;;;;;;;;;;;24.20;99.90;;;;;;5015082;28;19929;-85
2022/07/09 11:56:17;;;;;;;;;;;23.70;99.90;;;;;;5011695;28;20021;-88
2022/07/09 11:58:53;;;;;;;;;;;24.00;99.90;;;;;;5006875;28;19937;-85
2022/07/09 12:01:19;;;;;;;;;;;24.40;99.90;;;;;;5014845;28;19929;-86
2022/07/09 12:03:49;;;;;;;;;;;23.70;99.90;;;;;;5009340;28;20503;-84
2022/07/09 12:06:14;;;;;;;;;;;23.50;99.90;;;;;;5009790;28;20271;-84
2022/07/09 12:08:40;;;;;;;;;;;24.20;99.90;;;;;;4994489;28;19936;-84
2022/07/09 12:11:06;;;;;;;;;;;24.50;99.90;;;;;;5003508;28;19956;-86
2022/07/09 12:13:32;;;;;;;;;;;24.60;99.90;;;;;;5001060;28;20007;-83
2022/07/09 12:15:58;;;;;;;;;;;24.50;99.90;;;;;;4998844;28;20390;-86
2022/07/09 12:18:23;;;;;;;;;;;23.50;99.90;;;;;;5000618;28;19929;-82
2022/07/09 12:20:49;;;;;;;;;;;22.50;99.90;;;;;;5003902;28;19940;-85
2022/07/09 12:23:15;;;;;;;;;;;23.30;99.90;;;;;;5007212;28;19936;-82
2022/07/09 12:25:41;;;;;;;;;;;23.60;99.90;;;;;;5011630;28;19929;-83
2022/07/09 12:28:06;;;;;;;;;;;23.80;99.90;;;;;;5013896;28;19979;-82
2022/07/09 12:30:32;;;;;;;;;;;23.50;99.90;;;;;;5013443;28;20468;-86
2022/07/09 12:32:58;;;;;;;;;;;23.50;99.90;;;;;;5001045;28;19933;-83
2022/07/09 12:35:24;;;;;;;;;;;23.00;99.90;;;;;;4999357;28;19961;-83
2022/07/09 12:37:50;;;;;;;;;;;23.20;99.90;;;;;;5004515;28;19929;-83
2022/07/09 12:40:16;;;;;;;;;;;22.60;99.90;;;;;;5005644;28;19935;-84
2022/07/09 12:42:42;;;;;;;;;;;22.70;99.90;;;;;;5009083;28;19936;-83
2022/07/09 12:45:08;;;;;;;;;;;23.00;99.90;;;;;;5016854;28;20023;-84
2022/07/09 12:47:34;;;;;;;;;;;23.30;99.90;;;;;;5002943;28;19929;-87
2022/07/09 12:49:59;;;;;;;;;;;23.80;99.90;;;;;;4997186;28;19940;-86
2022/07/09 12:52:26;;;;;;;;;;;23.60;99.90;;;;;;4997201;28;19928;-84
2022/07/09 12:54:52;;;;;;;;;;;24.00;99.90;;;;;;4996462;28;19933;-84
2022/07/09 12:57:18;;;;;;;;;;;23.30;99.90;;;;;;5008298;28;19929;-86
2022/07/09 12:59:43;;;;;;;;;;;23.40;99.90;;;;;;5014432;28;20333;-83
2022/07/09 13:02:09;;;;;;;;;;;22.90;99.90;;;;;;5012295;28;20011;-85
2022/07/09 13:04:35;;;;;;;;;;;23.00;99.90;;;;;;5009861;28;19933;-85
2022/07/09 13:07:02;;;;;;;;;;;22.90;99.90;;;;;;5009853;28;20756;-83
2022/07/09 13:09:27;;;;;;;;;;;22.90;99.90;;;;;;5007834;28;19936;-86
2022/07/09 13:11:54;;;;;;;;;;;22.80;99.90;;;;;;4989320;28;19930;-82
2022/07/09 13:14:19;;;;;;;;;;;22.80;99.90;;;;;;5014767;28;19936;-85
2022/07/09 13:16:45;;;;;;;;;;;22.70;99.90;;;;;;5016039;28;19929;-84
2022/07/09 13:19:10;;;;;;;;;;;22.80;99.90;;;;;;5010066;28;19986;-84
2022/07/09 13:21:36;;;;;;;;;;;22.10;99.90;;;;;;5012050;28;19972;-85
2022/07/09 13:24:02;;;;;;;;;;;22.00;99.90;;;;;;5011395;28;20059;-85
2022/07/09 13:26:28;;;;;;;;;;;21.60;99.90;;;;;;5012060;28;20023;-84
2022/07/09 13:28:54;;;;;;;;;;;22.20;99.90;;;;;;5002030;28;19933;-84
2022/07/09 13:31:21;;;;;;;;;;;22.20;99.90;;;;;;5017861;28;19952;-85
2022/07/09 13:33:47;;;;;;;;;;;22.20;99.90;;;;;;5007209;28;19933;-85
2022/07/09 13:36:13;;;;;;;;;;;22.00;99.90;;;;;;5003021;28;19943;-84
2022/07/09 13:38:38;;;;;;;;;;;22.00;99.90;;;;;;5016608;28;20648;-83
2022/07/09 13:41:05;;;;;;;;;;;21.60;99.90;;;;;;5017634;28;19929;-84
2022/07/09 13:43:30;;;;;;;;;;;22.50;99.90;;;;;;5012373;28;20437;-82
2022/07/09 13:45:57;;;;;;;;;;;22.30;99.90;;;;;;5018571;28;20387;-83
2022/07/09 13:48:24;;;;;;;;;;;22.30;99.90;;;;;;5004844;28;19929;-84
2022/07/09 13:50:49;;;;;;;;;;;22.60;99.90;;;;;;4995382;28;19935;-80
2022/07/09 13:53:15;;;;;;;;;;;22.50;99.90;;;;;;5021666;28;19969;-82
2022/07/09 13:55:41;;;;;;;;;;;22.70;99.90;;;;;;5021289;28;19939;-84
2022/07/09 13:58:07;;;;;;;;;;;22.30;99.90;;;;;;5014597;28;19937;-85
2022/07/09 14:00:33;;;;;;;;;;;22.00;99.90;;;;;;5008226;28;21485;-85
2022/07/09 14:02:59;;;;;;;;;;;21.90;99.90;;;;;;5014196;28;19932;-83
2022/07/09 14:05:24;;;;;;;;;;;21.70;99.90;;;;;;5010489;28;20803;-83
2022/07/09 14:07:50;;;;;;;;;;;21.70;99.90;;;;;;5014286;28;19928;-83
2022/07/09 14:10:16;;;;;;;;;;;21.90;99.90;;;;;;5000142;28;19929;-84
2022/07/09 14:12:47;;;;;;;;;;;22.00;99.90;;;;;;5014601;28;19929;-84
2022/07/09 14:15:13;;;;;;;;;;;22.10;99.90;;;;;;5007575;28;19928;-84